sensor_id;sensor_type;location;lat;lon;timestamp;pressure;altitude;pressure_sealevel;temperature;humidity
17383;BME280;8809;51.892;8.384;2022-11-15T00:00:13;100035.16;;;8.89;100.00
17383;BME280;8809;51.892;8.384;2022-11-15T00:02:40;100038.66;;;8.89;100.00
17383;BME280;8809;51.892;8.384;2022-11-15T00:05:07;100048.31;;;8.92;100.00
17383;BME280;8809;51.892;8.384;2022-11-15T00:07:36;100046.63;;;8.94;100.00
17383;BME280;8809;51.892;8.384;2022-11-15T00:10:07;100051.06;;;8.97;100.00
17383;BME280;8809;51.892;8.384;2022-11-15T00:12:43;100037.25;;;8.98;100.00
17383;BME280;8809;51.892;8.384;2022-11-15T00:15:11;100039.91;;;8.99;100.00
17383;BME280;8809;51.892;8.384;2022-11-15T00:17:38;100036.53;;;9.02;100.00
17383;BME280;8809;51.892;8.384;2022-11-15T00:20:13;100034.00;;;9.03;100.00
17383;BME280;8809;51.892;8.384;2022-11-15T00:22:41;100037.59;;;9.07;100.00
17383;BME280;8809;51.892;8.384;2022-11-15T00:25:12;100039.44;;;9.09;100.00
17383;BME280;8809;51.892;8.384;2022-11-15T00:27:39;100030.81;;;9.10;100.00
17383;BME280;8809;51.892;8.384;2022-11-15T00:30:15;100039.56;;;9.12;100.00
17383;BME280;8809;51.892;8.384;2022-11-15T00:32:42;100032.66;;;9.14;100.00
17383;BME280;8809;51.892;8.384;2022-11-15T00:35:09;100036.22;;;9.16;100.00
17383;BME280;8809;51.892;8.384;2022-11-15T00:37:37;100035.41;;;9.17;100.00
17383;BME280;8809;51.892;8.384;2022-11-15T00:40:15;100025.13;;;9.20;100.00
17383;BME280;8809;51.892;8.384;2022-11-15T00:42:42;100026.00;;;9.21;100.00
17383;BME280;8809;51.892;8.384;2022-11-15T00:45:09;100020.88;;;9.22;100.00
17383;BME280;8809;51.892;8.384;2022-11-15T00:47:37;100025.28;;;9.25;100.00
17383;BME280;8809;51.892;8.384;2022-11-15T00:50:13;100021.78;;;9.24;100.00
17383;BME280;8809;51.892;8.384;2022-11-15T00:52:40;100014.09;;;9.27;100.00
17383;BME280;8809;51.892;8.384;2022-11-15T00:55:09;100007.25;;;9.29;100.00
17383;BME280;8809;51.892;8.384;2022-11-15T00:57:44;100016.00;;;9.32;100.00
17383;BME280;8809;51.892;8.384;2022-11-15T01:00:14;100006.41;;;9.30;100.00
17383;BME280;8809;51.892;8.384;2022-11-15T01:02:41;100012.53;;;9.32;100.00
17383;BME280;8809;51.892;8.384;2022-11-15T01:05:08;100003.91;;;9.34;100.00
17383;BME280;8809;51.892;8.384;2022-11-15T01:07:35;100004.84;;;9.36;100.00
17383;BME280;8809;51.892;8.384;2022-11-15T01:10:07;100000.59;;;9.38;100.00
17383;BME280;8809;51.892;8.384;2022-11-15T01:12:42;100001.53;;;9.40;100.00
17383;BME280;8809;51.892;8.384;2022-11-15T01:15:10;99988.63;;;9.43;100.00
17383;BME280;8809;51.892;8.384;2022-11-15T01:17:37;99983.47;;;9.44;100.00
17383;BME280;8809;51.892;8.384;2022-11-15T01:20:15;99980.03;;;9.45;100.00
17383;BME280;8809;51.892;8.384;2022-11-15T01:22:42;99985.44;;;9.50;100.00
17383;BME280;8809;51.892;8.384;2022-11-15T01:25:09;99974.19;;;9.51;100.00
17383;BME280;8809;51.892;8.384;2022-11-15T01:27:36;99973.38;;;9.53;100.00
17383;BME280;8809;51.892;8.384;2022-11-15T01:30:16;99960.53;;;9.58;100.00
17383;BME280;8809;51.892;8.384;2022-11-15T01:32:43;99959.72;;;9.59;100.00
17383;BME280;8809;51.892;8.384;2022-11-15T01:35:11;99964.13;;;9.61;100.00
17383;BME280;8809;51.892;8.384;2022-11-15T01:37:38;99953.69;;;9.61;100.00
17383;BME280;8809;51.892;8.384;2022-11-15T01:40:13;99953.69;;;9.61;100.00
17383;BME280;8809;51.892;8.384;2022-11-15T01:42:40;99959.78;;;9.62;100.00
17383;BME280;8809;51.892;8.384;2022-11-15T01:45:13;99966.72;;;9.61;100.00
17383;BME280;8809;51.892;8.384;2022-11-15T01:47:43;99959.78;;;9.62;100.00
17383;BME280;8809;51.892;8.384;2022-11-15T01:50:16;99956.34;;;9.63;100.00
17383;BME280;8809;51.892;8.384;2022-11-15T01:52:44;99954.59;;;9.62;100.00
17383;BME280;8809;51.892;8.384;2022-11-15T01:55:14;99954.59;;;9.62;100.00
17383;BME280;8809;51.892;8.384;2022-11-15T01:57:45;99958.97;;;9.63;100.00
17383;BME280;8809;51.892;8.384;2022-11-15T02:00:16;99951.97;;;9.62;100.00
17383;BME280;8809;51.892;8.384;2022-11-15T02:02:43;99958.13;;;9.64;100.00
17383;BME280;8809;51.892;8.384;2022-11-15T02:05:10;99946.84;;;9.63;100.00
17383;BME280;8809;51.892;8.384;2022-11-15T02:07:37;99948.59;;;9.64;100.00
17383;BME280;8809;51.892;8.384;2022-11-15T02:10:17;99955.66;;;9.67;100.00
17383;BME280;8809;51.892;8.384;2022-11-15T02:12:45;99953.94;;;9.67;100.00
17383;BME280;8809;51.892;8.384;2022-11-15T02:15:15;99949.69;;;9.71;100.00
17383;BME280;8809;51.892;8.384;2022-11-15T02:17:51;99956.69;;;9.72;100.00
17383;BME280;8809;51.892;8.384;2022-11-15T02:26:45;99941.34;;;9.81;100.00
17383;BME280;8809;51.892;8.384;2022-11-15T02:29:28;99941.53;;;9.86;100.00
17383;BME280;8809;51.892;8.384;2022-11-15T02:32:06;99943.34;;;9.88;100.00
17383;BME280;8809;51.892;8.384;2022-11-15T02:34:44;99930.41;;;9.91;100.00
17383;BME280;8809;51.892;8.384;2022-11-15T02:37:25;99933.13;;;9.94;100.00
17383;BME280;8809;51.892;8.384;2022-11-15T02:40:01;99939.34;;;9.98;100.00
17383;BME280;8809;51.892;8.384;2022-11-15T02:42:44;99935.94;;;10.00;100.00
17383;BME280;8809;51.892;8.384;2022-11-15T02:45:35;99935.25;;;10.06;100.00
17383;BME280;8809;51.892;8.384;2022-11-15T02:48:06;99935.41;;;10.11;100.00
17383;BME280;8809;51.892;8.384;2022-11-15T02:50:34;99934.56;;;10.12;100.00
17383;BME280;8809;51.892;8.384;2022-11-15T02:53:01;99932.06;;;10.15;100.00
17383;BME280;8809;51.892;8.384;2022-11-15T02:55:30;99918.19;;;10.16;100.00
17383;BME280;8809;51.892;8.384;2022-11-15T02:58:09;99927.91;;;10.20;100.00
17383;BME280;8809;51.892;8.384;2022-11-15T03:00:42;99921.84;;;10.21;100.00
17383;BME280;8809;51.892;8.384;2022-11-15T03:06:12;99920.31;;;10.26;100.00
17383;BME280;8809;51.892;8.384;2022-11-15T03:08:50;99922.06;;;10.27;100.00
17383;BME280;8809;51.892;8.384;2022-11-15T03:11:21;99918.63;;;10.28;100.00
17383;BME280;8809;51.892;8.384;2022-11-15T03:13:54;99927.38;;;10.30;100.00
17383;BME280;8809;51.892;8.384;2022-11-15T03:16:27;99923.09;;;10.32;100.00
17383;BME280;8809;51.892;8.384;2022-11-15T03:19:02;99918.75;;;10.32;100.00
17383;BME280;8809;51.892;8.384;2022-11-15T03:21:32;99923.19;;;10.35;100.00
17383;BME280;8809;51.892;8.384;2022-11-15T03:24:03;99918.94;;;10.37;100.00
17383;BME280;8809;51.892;8.384;2022-11-15T03:26:33;99920.69;;;10.38;100.00
17383;BME280;8809;51.892;8.384;2022-11-15T03:29:04;99914.66;;;10.40;100.00
17383;BME280;8809;51.892;8.384;2022-11-15T03:31:34;99918.16;;;10.41;100.00
17383;BME280;8809;51.892;8.384;2022-11-15T03:34:21;99921.72;;;10.43;100.00
17383;BME280;8809;51.892;8.384;2022-11-15T03:36:50;99919.16;;;10.45;100.00
17383;BME280;8809;51.892;8.384;2022-11-15T03:39:19;99920.09;;;10.47;100.00
17383;BME280;8809;51.892;8.384;2022-11-15T03:41:49;99922.72;;;10.48;100.00
17383;BME280;8809;51.892;8.384;2022-11-15T03:44:24;99924.50;;;10.49;100.00
17383;BME280;8809;51.892;8.384;2022-11-15T03:47:02;99922.81;;;10.51;100.00
17383;BME280;8809;51.892;8.384;2022-11-15T03:49:35;99925.44;;;10.51;100.00
17383;BME280;8809;51.892;8.384;2022-11-15T03:52:03;99926.38;;;10.53;100.00
17383;BME280;8809;51.892;8.384;2022-11-15T03:54:31;99920.28;;;10.53;100.00
17383;BME280;8809;51.892;8.384;2022-11-15T03:56:58;99915.94;;;10.53;100.00
17383;BME280;8809;51.892;8.384;2022-11-15T03:59:25;99923.81;;;10.55;100.00
17383;BME280;8809;51.892;8.384;2022-11-15T04:01:52;99924.66;;;10.54;100.00
17383;BME280;8809;51.892;8.384;2022-11-15T04:04:18;99921.25;;;10.56;100.00
17383;BME280;8809;51.892;8.384;2022-11-15T04:06:46;99924.75;;;10.57;100.00
17383;BME280;8809;51.892;8.384;2022-11-15T04:09:13;99920.38;;;10.57;100.00
17383;BME280;8809;51.892;8.384;2022-11-15T04:11:40;99922.16;;;10.57;100.00
17383;BME280;8809;51.892;8.384;2022-11-15T04:14:07;99913.44;;;10.58;100.00
17383;BME280;8809;51.892;8.384;2022-11-15T04:16:34;99910.81;;;10.56;100.00
17383;BME280;8809;51.892;8.384;2022-11-15T04:19:01;99913.44;;;10.58;100.00
17383;BME280;8809;51.892;8.384;2022-11-15T04:21:45;99912.56;;;10.57;100.00
17383;BME280;8809;51.892;8.384;2022-11-15T04:24:30;99910.81;;;10.56;100.00
17383;BME280;8809;51.892;8.384;2022-11-15T04:26:57;99918.66;;;10.56;100.00
17383;BME280;8809;51.892;8.384;2022-11-15T04:29:24;99923.00;;;10.57;100.00
17383;BME280;8809;51.892;8.384;2022-11-15T04:32:00;99919.50;;;10.55;100.00
17383;BME280;8809;51.892;8.384;2022-11-15T04:34:27;99928.19;;;10.56;100.00
17383;BME280;8809;51.892;8.384;2022-11-15T04:36:54;99928.19;;;10.56;100.00
17383;BME280;8809;51.892;8.384;2022-11-15T04:39:48;99925.59;;;10.56;100.00
17383;BME280;8809;51.892;8.384;2022-11-15T04:42:15;99930.81;;;10.56;100.00
17383;BME280;8809;51.892;8.384;2022-11-15T04:44:42;99928.19;;;10.56;100.00
17383;BME280;8809;51.892;8.384;2022-11-15T04:47:09;99929.97;;;10.57;100.00
17383;BME280;8809;51.892;8.384;2022-11-15T04:49:35;99917.78;;;10.57;100.00
17383;BME280;8809;51.892;8.384;2022-11-15T04:52:03;99916.06;;;10.58;100.00
17383;BME280;8809;51.892;8.384;2022-11-15T04:54:29;99912.56;;;10.57;100.00
17383;BME280;8809;51.892;8.384;2022-11-15T04:56:58;99913.44;;;10.58;100.00
17383;BME280;8809;51.892;8.384;2022-11-15T04:59:25;99914.31;;;10.57;100.00
17383;BME280;8809;51.892;8.384;2022-11-15T05:01:52;99913.44;;;10.58;100.00
17383;BME280;8809;51.892;8.384;2022-11-15T05:04:18;99907.34;;;10.57;100.00
17383;BME280;8809;51.892;8.384;2022-11-15T05:06:45;99910.81;;;10.56;100.00
17383;BME280;8809;51.892;8.384;2022-11-15T05:09:12;99914.31;;;10.57;100.00
17383;BME280;8809;51.892;8.384;2022-11-15T05:11:39;99910.91;;;10.59;100.00
17383;BME280;8809;51.892;8.384;2022-11-15T05:14:07;99917.84;;;10.59;100.00
17383;BME280;8809;51.892;8.384;2022-11-15T05:16:34;99921.34;;;10.59;100.00
17383;BME280;8809;51.892;8.384;2022-11-15T05:19:02;99917.88;;;10.60;100.00
17383;BME280;8809;51.892;8.384;2022-11-15T05:21:29;99922.28;;;10.61;100.00
17383;BME280;8809;51.892;8.384;2022-11-15T05:23:55;99913.59;;;10.62;100.00
17383;BME280;8809;51.892;8.384;2022-11-15T05:26:23;99915.38;;;10.63;100.00
17383;BME280;8809;51.892;8.384;2022-11-15T05:28:52;99905.88;;;10.65;100.00
17383;BME280;8809;51.892;8.384;2022-11-15T05:31:21;99912.81;;;10.65;100.00
17383;BME280;8809;51.892;8.384;2022-11-15T05:33:49;99914.59;;;10.66;100.00
17383;BME280;8809;51.892;8.384;2022-11-15T05:36:20;99905.88;;;10.65;100.00
17383;BME280;8809;51.892;8.384;2022-11-15T05:38:49;99900.66;;;10.65;100.00
17383;BME280;8809;51.892;8.384;2022-11-15T05:41:19;99897.22;;;10.66;100.00
17383;BME280;8809;51.892;8.384;2022-11-15T05:43:48;99901.56;;;10.67;100.00
17383;BME280;8809;51.892;8.384;2022-11-15T05:46:17;99900.75;;;10.68;100.00
17383;BME280;8809;51.892;8.384;2022-11-15T05:48:49;99892.91;;;10.68;100.00
17383;BME280;8809;51.892;8.384;2022-11-15T05:51:17;99899.84;;;10.68;100.00
17383;BME280;8809;51.892;8.384;2022-11-15T05:53:46;99898.97;;;10.67;100.00
17383;BME280;8809;51.892;8.384;2022-11-15T05:56:14;99898.06;;;10.67;100.00
17383;BME280;8809;51.892;8.384;2022-11-15T05:58:41;99905.06;;;10.68;100.00
17383;BME280;8809;51.892;8.384;2022-11-15T06:01:09;99900.75;;;10.68;100.00
17383;BME280;8809;51.892;8.384;2022-11-15T06:03:36;99899.84;;;10.68;100.00
17383;BME280;8809;51.892;8.384;2022-11-15T06:06:05;99892.91;;;10.68;100.00
17383;BME280;8809;51.892;8.384;2022-11-15T06:08:32;99888.59;;;10.69;100.00
17383;BME280;8809;51.892;8.384;2022-11-15T06:11:03;99895.56;;;10.70;100.00
17383;BME280;8809;51.892;8.384;2022-11-15T06:13:30;99892.06;;;10.69;100.00
17383;BME280;8809;51.892;8.384;2022-11-15T06:15:57;99890.41;;;10.71;100.00
17383;BME280;8809;51.892;8.384;2022-11-15T06:18:24;99890.41;;;10.71;100.00
17383;BME280;8809;51.892;8.384;2022-11-15T06:20:51;99889.56;;;10.72;100.00
17383;BME280;8809;51.892;8.384;2022-11-15T06:23:19;99895.69;;;10.73;100.00
17383;BME280;8809;51.892;8.384;2022-11-15T06:25:46;99895.72;;;10.74;100.00
17383;BME280;8809;51.892;8.384;2022-11-15T06:28:13;99899.22;;;10.76;100.00
17383;BME280;8809;51.892;8.384;2022-11-15T06:30:40;99901.00;;;10.77;100.00
17383;BME280;8809;51.892;8.384;2022-11-15T06:33:07;99905.50;;;10.82;100.00
17383;BME280;8809;51.892;8.384;2022-11-15T06:35:35;99908.09;;;10.82;100.00
17383;BME280;8809;51.892;8.384;2022-11-15T06:38:03;99904.75;;;10.86;100.00
17383;BME280;8809;51.892;8.384;2022-11-15T06:40:34;99903.03;;;10.88;100.00
17383;BME280;8809;51.892;8.384;2022-11-15T06:43:02;99906.63;;;10.91;100.00
17383;BME280;8809;51.892;8.384;2022-11-15T06:45:29;99909.31;;;10.93;100.00
17383;BME280;8809;51.892;8.384;2022-11-15T06:47:57;99916.34;;;10.95;100.00
17383;BME280;8809;51.892;8.384;2022-11-15T06:50:24;99920.75;;;10.98;100.00
17383;BME280;8809;51.892;8.384;2022-11-15T06:52:51;99917.28;;;10.99;100.00
17383;BME280;8809;51.892;8.384;2022-11-15T06:55:18;99918.28;;;11.02;100.00
17383;BME280;8809;51.892;8.384;2022-11-15T06:57:50;99911.34;;;11.03;100.00
17383;BME280;8809;51.892;8.384;2022-11-15T07:00:23;99928.00;;;11.08;100.00
17383;BME280;8809;51.892;8.384;2022-11-15T07:02:50;99923.72;;;11.10;100.00
17383;BME280;8809;51.892;8.384;2022-11-15T07:05:18;99932.53;;;11.13;100.00
17383;BME280;8809;51.892;8.384;2022-11-15T07:07:51;99931.69;;;11.16;100.00
17383;BME280;8809;51.892;8.384;2022-11-15T07:10:18;99930.03;;;11.18;100.00
17383;BME280;8809;51.892;8.384;2022-11-15T07:12:47;99937.06;;;11.21;100.00
17383;BME280;8809;51.892;8.384;2022-11-15T07:15:19;99944.13;;;11.23;100.00
17383;BME280;8809;51.892;8.384;2022-11-15T07:17:46;99939.78;;;11.24;100.00
17383;BME280;8809;51.892;8.384;2022-11-15T07:20:19;99937.19;;;11.25;100.00
17383;BME280;8809;51.892;8.384;2022-11-15T07:22:46;99945.13;;;11.28;100.00
17383;BME280;8809;51.892;8.384;2022-11-15T07:25:13;99950.38;;;11.30;100.00
17383;BME280;8809;51.892;8.384;2022-11-15T07:27:40;99939.97;;;11.31;100.00
17383;BME280;8809;51.892;8.384;2022-11-15T07:30:15;99952.22;;;11.32;100.00
17383;BME280;8809;51.892;8.384;2022-11-15T07:32:43;99946.16;;;11.35;100.00
17383;BME280;8809;51.892;8.384;2022-11-15T07:35:10;99948.81;;;11.36;100.00
17383;BME280;8809;51.892;8.384;2022-11-15T07:37:37;99953.28;;;11.40;100.00
17383;BME280;8809;51.892;8.384;2022-11-15T07:40:14;99950.69;;;11.40;100.00
17383;BME280;8809;51.892;8.384;2022-11-15T07:42:42;99946.41;;;11.42;100.00
17383;BME280;8809;51.892;8.384;2022-11-15T07:45:23;99953.47;;;11.46;100.00
17383;BME280;8809;51.892;8.384;2022-11-15T07:47:54;99950.09;;;11.50;100.00
17383;BME280;8809;51.892;8.384;2022-11-15T07:50:21;99947.53;;;11.53;100.00
17383;BME280;8809;51.892;8.384;2022-11-15T07:52:53;99947.63;;;11.57;100.00
17383;BME280;8809;51.892;8.384;2022-11-15T07:55:20;99946.81;;;11.58;100.00
17383;BME280;8809;51.892;8.384;2022-11-15T07:57:47;99946.00;;;11.60;100.00
17383;BME280;8809;51.892;8.384;2022-11-15T08:00:15;99949.56;;;11.64;100.00
17383;BME280;8809;51.892;8.384;2022-11-15T08:02:42;99952.28;;;11.67;100.00
17383;BME280;8809;51.892;8.384;2022-11-15T08:05:11;99954.13;;;11.71;100.00
17383;BME280;8809;51.892;8.384;2022-11-15T08:07:38;99954.19;;;11.74;100.00
17383;BME280;8809;51.892;8.384;2022-11-15T08:10:12;99951.69;;;11.77;100.00
17383;BME280;8809;51.892;8.384;2022-11-15T08:12:39;99953.56;;;11.81;100.00
17383;BME280;8809;51.892;8.384;2022-11-15T08:15:06;99951.91;;;11.84;100.00
17383;BME280;8809;51.892;8.384;2022-11-15T08:17:33;99952.03;;;11.89;100.00
17383;BME280;8809;51.892;8.384;2022-11-15T08:20:00;99948.63;;;11.93;100.00
17383;BME280;8809;51.892;8.384;2022-11-15T08:22:43;99944.41;;;11.98;100.00
17383;BME280;8809;51.892;8.384;2022-11-15T08:25:10;99938.41;;;12.01;100.00
17383;BME280;8809;51.892;8.384;2022-11-15T08:27:38;99934.91;;;12.02;100.00
17383;BME280;8809;51.892;8.384;2022-11-15T08:30:06;99932.41;;;12.06;100.00
17383;BME280;8809;51.892;8.384;2022-11-15T08:32:41;99939.50;;;12.10;100.00
17383;BME280;8809;51.892;8.384;2022-11-15T08:35:08;99940.63;;;12.20;100.00
17383;BME280;8809;51.892;8.384;2022-11-15T08:37:38;99936.38;;;12.25;100.00
17383;BME280;8809;51.892;8.384;2022-11-15T08:40:18;99932.25;;;12.35;100.00
17383;BME280;8809;51.892;8.384;2022-11-15T08:42:46;99941.16;;;12.43;100.00
17383;BME280;8809;51.892;8.384;2022-11-15T08:45:13;99944.81;;;12.49;100.00
17383;BME280;8809;51.892;8.384;2022-11-15T08:47:40;99937.97;;;12.56;100.00
17383;BME280;8809;51.892;8.384;2022-11-15T08:50:32;99946.03;;;12.65;100.00
17383;BME280;8809;51.892;8.384;2022-11-15T08:53:04;99939.16;;;12.70;100.00
17383;BME280;8809;51.892;8.384;2022-11-15T08:55:36;99941.09;;;12.77;100.00
17383;BME280;8809;51.892;8.384;2022-11-15T08:58:03;99941.19;;;12.83;100.00
17383;BME280;8809;51.892;8.384;2022-11-15T09:00:31;99940.47;;;12.90;100.00
17383;BME280;8809;51.892;8.384;2022-11-15T09:02:58;99942.41;;;12.97;100.00
17383;BME280;8809;51.892;8.384;2022-11-15T09:05:25;99935.59;;;13.06;100.00
17383;BME280;8809;51.892;8.384;2022-11-15T09:07:53;99931.22;;;13.08;100.00
17383;BME280;8809;51.892;8.384;2022-11-15T09:10:20;99941.75;;;13.09;100.00
17383;BME280;8809;51.892;8.384;2022-11-15T09:12:49;99940.41;;;13.28;100.00
17383;BME280;8809;51.892;8.384;2022-11-15T09:15:16;99944.84;;;13.30;100.00
17383;BME280;8809;51.892;8.384;2022-11-15T09:17:43;99949.31;;;13.36;100.00
17383;BME280;8809;51.892;8.384;2022-11-15T09:20:14;99945.00;;;13.38;100.00
17383;BME280;8809;51.892;8.384;2022-11-15T09:22:41;99951.13;;;13.38;100.00
17383;BME280;8809;51.892;8.384;2022-11-15T09:25:09;99952.03;;;13.41;100.00
17383;BME280;8809;51.892;8.384;2022-11-15T09:27:35;99951.22;;;13.43;100.00
17383;BME280;8809;51.892;8.384;2022-11-15T09:30:16;99943.47;;;13.49;100.00
17383;BME280;8809;51.892;8.384;2022-11-15T09:32:43;99949.63;;;13.51;100.00
17383;BME280;8809;51.892;8.384;2022-11-15T09:35:10;99950.59;;;13.55;100.00
17383;BME280;8809;51.892;8.384;2022-11-15T09:37:37;99950.63;;;13.58;100.00
17383;BME280;8809;51.892;8.384;2022-11-15T09:40:14;99947.19;;;13.60;100.00
17383;BME280;8809;51.892;8.384;2022-11-15T09:43:05;99950.75;;;13.64;100.00
17383;BME280;8809;51.892;8.384;2022-11-15T09:45:41;99950.78;;;13.67;100.00
17383;BME280;8809;51.892;8.384;2022-11-15T09:51:17;99948.31;;;13.74;100.00
17383;BME280;8809;51.892;8.384;2022-11-15T09:53:49;99951.97;;;13.83;100.00
17383;BME280;8809;51.892;8.384;2022-11-15T09:56:21;99948.56;;;13.88;100.00
17383;BME280;8809;51.892;8.384;2022-11-15T09:58:56;99942.47;;;13.89;100.00
17383;BME280;8809;51.892;8.384;2022-11-15T10:01:38;99939.91;;;13.92;100.00
17383;BME280;8809;51.892;8.384;2022-11-15T10:04:07;99939.91;;;13.94;100.00
17383;BME280;8809;51.892;8.384;2022-11-15T10:06:38;99941.75;;;13.98;100.00
17383;BME280;8809;51.892;8.384;2022-11-15T10:09:13;99941.97;;;14.13;100.00
17383;BME280;8809;51.892;8.384;2022-11-15T10:11:42;99938.47;;;14.11;100.00
17383;BME280;8809;51.892;8.384;2022-11-15T10:14:12;99931.50;;;14.13;100.00
17383;BME280;8809;51.892;8.384;2022-11-15T10:17:15;99924.53;;;14.15;100.00
17383;BME280;8809;51.892;8.384;2022-11-15T10:19:56;99917.81;;;14.32;100.00
17383;BME280;8809;51.892;8.384;2022-11-15T10:22:44;99928.22;;;14.26;100.00
17383;BME280;8809;51.892;8.384;2022-11-15T10:25:17;99920.34;;;14.26;100.00
17383;BME280;8809;51.892;8.384;2022-11-15T10:27:50;99915.13;;;14.28;100.00
17383;BME280;8809;51.892;8.384;2022-11-15T10:30:18;99903.13;;;14.40;99.54
17383;BME280;8809;51.892;8.384;2022-11-15T10:32:47;99902.13;;;14.35;100.00
17383;BME280;8809;51.892;8.384;2022-11-15T10:35:23;99897.78;;;14.37;98.82
17383;BME280;8809;51.892;8.384;2022-11-15T10:37:51;99903.28;;;14.53;95.37
17383;BME280;8809;51.892;8.384;2022-11-15T10:40:20;99895.34;;;14.48;97.35
17383;BME280;8809;51.892;8.384;2022-11-15T10:42:48;99893.63;;;14.48;98.70
17383;BME280;8809;51.892;8.384;2022-11-15T10:45:27;99889.31;;;14.55;98.93
17383;BME280;8809;51.892;8.384;2022-11-15T10:48:22;99884.06;;;14.55;98.81
17383;BME280;8809;51.892;8.384;2022-11-15T10:50:50;99883.19;;;14.55;98.33
17383;BME280;8809;51.892;8.384;2022-11-15T10:53:23;99877.16;;;14.60;96.98
17383;BME280;8809;51.892;8.384;2022-11-15T10:55:52;99872.88;;;14.67;95.21
17383;BME280;8809;51.892;8.384;2022-11-15T10:58:26;99878.19;;;14.73;96.27
17383;BME280;8809;51.892;8.384;2022-11-15T11:00:55;99873.06;;;14.83;92.47
17383;BME280;8809;51.892;8.384;2022-11-15T11:03:33;99871.28;;;14.81;95.05
17383;BME280;8809;51.892;8.384;2022-11-15T11:06:05;99865.22;;;14.85;96.01
17383;BME280;8809;51.892;8.384;2022-11-15T11:08:33;99863.47;;;14.84;95.54
17383;BME280;8809;51.892;8.384;2022-11-15T11:11:01;99861.75;;;14.86;96.33
17383;BME280;8809;51.892;8.384;2022-11-15T11:13:30;99861.81;;;14.94;95.96
17383;BME280;8809;51.892;8.384;2022-11-15T11:16:09;99864.72;;;15.15;91.49
17383;BME280;8809;51.892;8.384;2022-11-15T11:18:49;99854.94;;;15.03;94.05
17383;BME280;8809;51.892;8.384;2022-11-15T11:21:24;99858.41;;;15.02;94.26
17383;BME280;8809;51.892;8.384;2022-11-15T11:23:57;99851.47;;;15.06;93.22
17383;BME280;8809;51.892;8.384;2022-11-15T11:26:35;99846.34;;;15.19;91.17
17383;BME280;8809;51.892;8.384;2022-11-15T11:29:17;99842.09;;;15.28;90.34
17383;BME280;8809;51.892;8.384;2022-11-15T11:31:51;99827.94;;;15.15;93.36
17383;BME280;8809;51.892;8.384;2022-11-15T11:34:40;99818.28;;;15.14;93.57
17383;BME280;8809;51.892;8.384;2022-11-15T11:37:17;99816.56;;;15.19;91.96
17383;BME280;8809;51.892;8.384;2022-11-15T11:39:56;99819.22;;;15.20;94.01
17383;BME280;8809;51.892;8.384;2022-11-15T11:42:46;99814.00;;;15.23;94.98
17383;BME280;8809;51.892;8.384;2022-11-15T11:45:27;99804.44;;;15.32;93.94
17383;BME280;8809;51.892;8.384;2022-11-15T11:48:02;99804.50;;;15.36;93.24
17383;BME280;8809;51.892;8.384;2022-11-15T11:50:37;99801.06;;;15.45;90.07
17383;BME280;8809;51.892;8.384;2022-11-15T11:53:12;99801.09;;;15.46;92.18
17383;BME280;8809;51.892;8.384;2022-11-15T11:55:45;99794.97;;;15.49;93.50
17383;BME280;8809;51.892;8.384;2022-11-15T11:58:18;99808.13;;;15.52;88.51
17383;BME280;8809;51.892;8.384;2022-11-15T12:00:49;99792.31;;;15.49;87.13
17383;BME280;8809;51.892;8.384;2022-11-15T12:03:24;99799.47;;;15.59;86.36
17383;BME280;8809;51.892;8.384;2022-11-15T12:05:54;99795.09;;;15.61;85.44
17383;BME280;8809;51.892;8.384;2022-11-15T12:08:30;99782.81;;;15.57;86.29
17383;BME280;8809;51.892;8.384;2022-11-15T12:11:04;99790.72;;;15.60;86.35
17383;BME280;8809;51.892;8.384;2022-11-15T12:13:33;99782.84;;;15.63;87.81
17383;BME280;8809;51.892;8.384;2022-11-15T12:16:07;99781.13;;;15.68;88.44
17383;BME280;8809;51.892;8.384;2022-11-15T12:18:38;99783.91;;;15.85;85.09
17383;BME280;8809;51.892;8.384;2022-11-15T12:21:13;99786.50;;;15.80;85.20
17383;BME280;8809;51.892;8.384;2022-11-15T12:23:44;99778.72;;;15.94;82.99
17383;BME280;8809;51.892;8.384;2022-11-15T12:26:17;99778.63;;;15.83;84.16
17383;BME280;8809;51.892;8.384;2022-11-15T12:28:49;99777.81;;;15.92;82.64
17383;BME280;8809;51.892;8.384;2022-11-15T12:31:22;99774.34;;;15.94;81.89
17383;BME280;8809;51.892;8.384;2022-11-15T12:33:55;99769.91;;;15.90;82.92
17383;BME280;8809;51.892;8.384;2022-11-15T12:36:35;99769.88;;;15.87;84.04
17383;BME280;8809;51.892;8.384;2022-11-15T12:39:04;99762.00;;;15.89;84.18
17383;BME280;8809;51.892;8.384;2022-11-15T12:41:32;99758.50;;;15.88;84.51
17383;BME280;8809;51.892;8.384;2022-11-15T12:44:00;99760.28;;;15.91;84.35
17383;BME280;8809;51.892;8.384;2022-11-15T12:47:00;99750.59;;;15.87;83.97
17383;BME280;8809;51.892;8.384;2022-11-15T12:49:45;99749.72;;;15.85;83.03
17383;BME280;8809;51.892;8.384;2022-11-15T12:52:14;99747.06;;;15.83;84.54
17383;BME280;8809;51.892;8.384;2022-11-15T12:55:01;99739.16;;;15.80;86.46
17383;BME280;8809;51.892;8.384;2022-11-15T12:57:34;99736.50;;;15.79;85.66
17383;BME280;8809;51.892;8.384;2022-11-15T13:03:22;99728.66;;;15.86;85.33
17383;BME280;8809;51.892;8.384;2022-11-15T13:06:07;99728.69;;;15.91;85.24
17383;BME280;8809;51.892;8.384;2022-11-15T13:08:44;99728.72;;;15.92;85.77
17383;BME280;8809;51.892;8.384;2022-11-15T13:11:45;99723.47;;;15.92;85.90
17383;BME280;8809;51.892;8.384;2022-11-15T13:14:37;99725.22;;;15.92;86.50
17383;BME280;8809;51.892;8.384;2022-11-15T13:20:19;99724.38;;;16.01;83.34
17383;BME280;8809;51.892;8.384;2022-11-15T13:22:48;99718.22;;;15.97;82.13
17383;BME280;8809;51.892;8.384;2022-11-15T13:25:38;99715.59;;;15.99;82.47
17383;BME280;8809;51.892;8.384;2022-11-15T13:28:17;99711.19;;;15.98;81.70
17383;BME280;8809;51.892;8.384;2022-11-15T13:30:50;99704.16;;;15.96;82.16
17383;BME280;8809;51.892;8.384;2022-11-15T13:33:20;99701.53;;;15.93;82.16
17383;BME280;8809;51.892;8.384;2022-11-15T13:35:52;99703.31;;;15.94;81.46
17383;BME280;8809;51.892;8.384;2022-11-15T13:38:26;99705.00;;;15.89;81.92
17383;BME280;8809;51.892;8.384;2022-11-15T13:40:55;99705.88;;;15.88;80.98
17383;BME280;8809;51.892;8.384;2022-11-15T13:43:27;99690.97;;;15.83;80.23